sensor_id;sensor_type;location;lat;lon;timestamp;pressure;altitude;pressure_sealevel;temperature;humidity
84032;BME280;74113;46.556;24.570;2024-02-23T00:01:34;97477.38;;;6.34;59.04
84032;BME280;74113;46.556;24.570;2024-02-23T00:04:03;97470.12;;;6.34;59.31
84032;BME280;74113;46.556;24.570;2024-02-23T00:06:34;97466.38;;;6.33;59.25
84032;BME280;74113;46.556;24.570;2024-02-23T00:09:04;97463.59;;;6.34;58.82
84032;BME280;74113;46.556;24.570;2024-02-23T00:11:33;97464.04;;;6.31;58.56
84032;BME280;74113;46.556;24.570;2024-02-23T00:14:02;97465.34;;;6.28;58.54
84032;BME280;74113;46.556;24.570;2024-02-23T00:16:37;97461.55;;;6.28;58.78
84032;BME280;74113;46.556;24.570;2024-02-23T00:19:08;97450.48;;;6.24;58.80
84032;BME280;74113;46.556;24.570;2024-02-23T00:21:38;97448.61;;;6.23;58.86
84032;BME280;74113;46.556;24.570;2024-02-23T00:24:08;97454.50;;;6.22;58.95
84032;BME280;74113;46.556;24.570;2024-02-23T00:26:36;97447.43;;;6.22;58.93
84032;BME280;74113;46.556;24.570;2024-02-23T00:29:05;97450.34;;;6.23;58.72
84032;BME280;74113;46.556;24.570;2024-02-23T00:31:37;97449.52;;;6.28;58.72
84032;BME280;74113;46.556;24.570;2024-02-23T00:34:07;97449.63;;;6.29;58.83
84032;BME280;74113;46.556;24.570;2024-02-23T00:36:41;97440.27;;;6.30;58.89
84032;BME280;74113;46.556;24.570;2024-02-23T00:39:10;97427.03;;;6.30;58.86
84032;BME280;74113;46.556;24.570;2024-02-23T00:41:39;97424.80;;;6.24;59.27
84032;BME280;74113;46.556;24.570;2024-02-23T00:44:08;97433.83;;;6.22;59.00
84032;BME280;74113;46.556;24.570;2024-02-23T00:46:37;97439.05;;;6.21;59.07
84032;BME280;74113;46.556;24.570;2024-02-23T00:49:07;97440.70;;;6.18;59.35
84032;BME280;74113;46.556;24.570;2024-02-23T00:51:36;97436.08;;;6.12;59.77
84032;BME280;74113;46.556;24.570;2024-02-23T00:54:05;97437.15;;;6.06;60.08
84032;BME280;74113;46.556;24.570;2024-02-23T00:56:36;97441.00;;;6.05;60.07
84032;BME280;74113;46.556;24.570;2024-02-23T00:59:18;97440.65;;;6.05;60.09
84032;BME280;74113;46.556;24.570;2024-02-23T01:01:47;97438.70;;;6.06;60.17
84032;BME280;74113;46.556;24.570;2024-02-23T01:04:17;97438.94;;;6.09;60.07
84032;BME280;74113;46.556;24.570;2024-02-23T01:06:45;97434.89;;;6.12;60.25
84032;BME280;74113;46.556;24.570;2024-02-23T01:09:14;97437.44;;;6.13;60.23
84032;BME280;74113;46.556;24.570;2024-02-23T01:11:46;97433.59;;;6.14;59.83
84032;BME280;74113;46.556;24.570;2024-02-23T01:14:15;97436.68;;;6.15;60.07
84032;BME280;74113;46.556;24.570;2024-02-23T01:16:44;97434.86;;;6.17;59.88
84032;BME280;74113;46.556;24.570;2024-02-23T01:19:13;97434.08;;;6.20;60.18
84032;BME280;74113;46.556;24.570;2024-02-23T01:21:44;97437.82;;;6.21;59.84
84032;BME280;74113;46.556;24.570;2024-02-23T01:24:14;97432.81;;;6.22;59.86
84032;BME280;74113;46.556;24.570;2024-02-23T01:26:43;97436.83;;;6.20;59.93
84032;BME280;74113;46.556;24.570;2024-02-23T01:29:12;97435.86;;;6.23;59.77
84032;BME280;74113;46.556;24.570;2024-02-23T01:31:41;97434.48;;;6.23;59.85
84032;BME280;74113;46.556;24.570;2024-02-23T01:34:09;97430.80;;;6.25;59.81
84032;BME280;74113;46.556;24.570;2024-02-23T01:36:39;97431.99;;;6.26;59.89
84032;BME280;74113;46.556;24.570;2024-02-23T01:39:08;97430.73;;;6.27;59.80
84032;BME280;74113;46.556;24.570;2024-02-23T01:41:36;97430.89;;;6.28;59.66
84032;BME280;74113;46.556;24.570;2024-02-23T01:44:05;97427.80;;;6.28;59.99
84032;BME280;74113;46.556;24.570;2024-02-23T01:46:35;97430.05;;;6.27;60.69
84032;BME280;74113;46.556;24.570;2024-02-23T01:49:05;97428.66;;;6.28;60.23
84032;BME280;74113;46.556;24.570;2024-02-23T01:51:34;97422.80;;;6.28;60.23
84032;BME280;74113;46.556;24.570;2024-02-23T01:54:04;97423.75;;;6.30;60.04
84032;BME280;74113;46.556;24.570;2024-02-23T01:56:35;97422.26;;;6.29;60.22
84032;BME280;74113;46.556;24.570;2024-02-23T01:59:06;97421.37;;;6.29;59.96
84032;BME280;74113;46.556;24.570;2024-02-23T02:01:35;97418.24;;;6.30;59.89
84032;BME280;74113;46.556;24.570;2024-02-23T02:04:04;97419.54;;;6.32;60.06
84032;BME280;74113;46.556;24.570;2024-02-23T02:06:39;97421.06;;;6.33;60.51
84032;BME280;74113;46.556;24.570;2024-02-23T02:09:07;97423.52;;;6.32;60.15
84032;BME280;74113;46.556;24.570;2024-02-23T02:11:45;97423.87;;;6.32;60.59
84032;BME280;74113;46.556;24.570;2024-02-23T02:14:15;97422.27;;;6.28;60.81
84032;BME280;74113;46.556;24.570;2024-02-23T02:16:45;97421.78;;;6.28;60.58
84032;BME280;74113;46.556;24.570;2024-02-23T02:19:14;97423.48;;;6.29;61.10
84032;BME280;74113;46.556;24.570;2024-02-23T02:21:43;97415.88;;;6.28;61.25
84032;BME280;74113;46.556;24.570;2024-02-23T02:24:12;97413.42;;;6.25;61.57
84032;BME280;74113;46.556;24.570;2024-02-23T02:26:42;97412.06;;;6.24;61.67
84032;BME280;74113;46.556;24.570;2024-02-23T02:29:14;97411.59;;;6.22;61.63
84032;BME280;74113;46.556;24.570;2024-02-23T02:31:43;97413.58;;;6.25;61.37
84032;BME280;74113;46.556;24.570;2024-02-23T02:34:11;97412.75;;;6.30;61.21
84032;BME280;74113;46.556;24.570;2024-02-23T02:36:43;97416.52;;;6.30;60.97
84032;BME280;74113;46.556;24.570;2024-02-23T02:39:11;97412.23;;;6.30;61.29
84032;BME280;74113;46.556;24.570;2024-02-23T02:41:40;97418.33;;;6.28;61.29
84032;BME280;74113;46.556;24.570;2024-02-23T02:44:09;97416.65;;;6.26;61.23
84032;BME280;74113;46.556;24.570;2024-02-23T02:46:38;97419.11;;;6.25;60.98
84032;BME280;74113;46.556;24.570;2024-02-23T02:49:07;97422.40;;;6.24;60.98
84032;BME280;74113;46.556;24.570;2024-02-23T02:51:36;97425.33;;;6.24;60.53
84032;BME280;74113;46.556;24.570;2024-02-23T02:54:05;97422.05;;;6.24;60.52
84032;BME280;74113;46.556;24.570;2024-02-23T02:56:35;97422.77;;;6.23;60.70
84032;BME280;74113;46.556;24.570;2024-02-23T02:59:03;97423.45;;;6.23;60.76
84032;BME280;74113;46.556;24.570;2024-02-23T03:01:32;97423.80;;;6.23;60.64
84032;BME280;74113;46.556;24.570;2024-02-23T03:04:01;97422.96;;;6.22;61.11
84032;BME280;74113;46.556;24.570;2024-02-23T03:06:31;97421.06;;;6.23;61.01
84032;BME280;74113;46.556;24.570;2024-02-23T03:09:00;97414.92;;;6.21;60.92
84032;BME280;74113;46.556;24.570;2024-02-23T03:11:29;97414.19;;;6.22;60.99
84032;BME280;74113;46.556;24.570;2024-02-23T03:13:58;97416.02;;;6.24;61.02
84032;BME280;74113;46.556;24.570;2024-02-23T03:16:30;97419.88;;;6.28;60.98
84032;BME280;74113;46.556;24.570;2024-02-23T03:18:59;97416.90;;;6.29;61.14
84032;BME280;74113;46.556;24.570;2024-02-23T03:21:29;97414.63;;;6.30;61.28
84032;BME280;74113;46.556;24.570;2024-02-23T03:23:57;97414.59;;;6.31;61.22
84032;BME280;74113;46.556;24.570;2024-02-23T03:26:26;97406.48;;;6.31;61.84
84032;BME280;74113;46.556;24.570;2024-02-23T03:28:55;97398.00;;;6.33;61.26
84032;BME280;74113;46.556;24.570;2024-02-23T03:31:24;97395.51;;;6.35;61.70
84032;BME280;74113;46.556;24.570;2024-02-23T03:33:53;97395.52;;;6.35;61.46
84032;BME280;74113;46.556;24.570;2024-02-23T03:36:21;97396.95;;;6.37;61.13
84032;BME280;74113;46.556;24.570;2024-02-23T03:38:50;97403.23;;;6.40;61.48
84032;BME280;74113;46.556;24.570;2024-02-23T03:41:19;97406.38;;;6.44;61.79
84032;BME280;74113;46.556;24.570;2024-02-23T03:43:48;97398.70;;;6.46;62.06
84032;BME280;74113;46.556;24.570;2024-02-23T03:46:16;97395.57;;;6.47;62.01
84032;BME280;74113;46.556;24.570;2024-02-23T03:48:46;97390.70;;;6.48;61.97
84032;BME280;74113;46.556;24.570;2024-02-23T03:51:15;97389.88;;;6.52;61.48
84032;BME280;74113;46.556;24.570;2024-02-23T03:53:45;97389.60;;;6.55;61.57
84032;BME280;74113;46.556;24.570;2024-02-23T03:56:15;97386.09;;;6.56;61.62
84032;BME280;74113;46.556;24.570;2024-02-23T03:58:44;97383.09;;;6.58;61.43
84032;BME280;74113;46.556;24.570;2024-02-23T04:01:13;97386.92;;;6.58;61.11
84032;BME280;74113;46.556;24.570;2024-02-23T04:03:42;97383.58;;;6.59;60.94
84032;BME280;74113;46.556;24.570;2024-02-23T04:06:11;97380.20;;;6.57;60.58
84032;BME280;74113;46.556;24.570;2024-02-23T04:08:40;97380.08;;;6.56;60.86
84032;BME280;74113;46.556;24.570;2024-02-23T04:11:12;97384.65;;;6.53;60.93
84032;BME280;74113;46.556;24.570;2024-02-23T04:13:41;97383.37;;;6.51;61.03
84032;BME280;74113;46.556;24.570;2024-02-23T04:16:10;97382.76;;;6.49;61.42
84032;BME280;74113;46.556;24.570;2024-02-23T04:18:39;97385.08;;;6.47;61.43
84032;BME280;74113;46.556;24.570;2024-02-23T04:21:08;97388.09;;;6.44;61.90
84032;BME280;74113;46.556;24.570;2024-02-23T04:23:37;97393.02;;;6.41;62.82
84032;BME280;74113;46.556;24.570;2024-02-23T04:26:05;97392.99;;;6.37;62.83
84032;BME280;74113;46.556;24.570;2024-02-23T04:28:34;97386.50;;;6.41;64.30
84032;BME280;74113;46.556;24.570;2024-02-23T04:31:03;97385.63;;;6.55;63.60
84032;BME280;74113;46.556;24.570;2024-02-23T04:33:33;97381.81;;;6.60;62.44
84032;BME280;74113;46.556;24.570;2024-02-23T04:36:04;97378.53;;;6.60;62.01
84032;BME280;74113;46.556;24.570;2024-02-23T04:38:33;97382.63;;;6.57;61.94
84032;BME280;74113;46.556;24.570;2024-02-23T04:41:05;97384.20;;;6.61;62.45
84032;BME280;74113;46.556;24.570;2024-02-23T04:43:34;97385.69;;;6.68;62.36
84032;BME280;74113;46.556;24.570;2024-02-23T04:46:03;97388.80;;;6.76;61.92
84032;BME280;74113;46.556;24.570;2024-02-23T04:48:34;97390.44;;;6.88;61.68
84032;BME280;74113;46.556;24.570;2024-02-23T04:51:04;97388.86;;;6.97;61.20
84032;BME280;74113;46.556;24.570;2024-02-23T04:53:38;97387.87;;;7.01;61.07
84032;BME280;74113;46.556;24.570;2024-02-23T04:56:07;97389.35;;;6.98;60.68
84032;BME280;74113;46.556;24.570;2024-02-23T04:58:36;97394.04;;;6.97;60.65
84032;BME280;74113;46.556;24.570;2024-02-23T05:01:06;97392.82;;;7.02;60.50
84032;BME280;74113;46.556;24.570;2024-02-23T05:03:35;97396.56;;;7.03;60.59
84032;BME280;74113;46.556;24.570;2024-02-23T05:06:05;97396.05;;;7.03;60.46
84032;BME280;74113;46.556;24.570;2024-02-23T05:08:33;97400.42;;;7.10;60.66
84032;BME280;74113;46.556;24.570;2024-02-23T05:11:06;97401.54;;;7.17;60.27
84032;BME280;74113;46.556;24.570;2024-02-23T05:13:38;97404.68;;;7.20;59.89
84032;BME280;74113;46.556;24.570;2024-02-23T05:16:14;97406.37;;;7.17;59.80
84032;BME280;74113;46.556;24.570;2024-02-23T05:18:44;97403.66;;;7.16;60.20
84032;BME280;74113;46.556;24.570;2024-02-23T05:21:15;97404.98;;;7.13;60.42
84032;BME280;74113;46.556;24.570;2024-02-23T05:23:44;97412.06;;;7.21;60.41
84032;BME280;74113;46.556;24.570;2024-02-23T05:26:15;97410.96;;;7.27;60.15
84032;BME280;74113;46.556;24.570;2024-02-23T05:28:44;97413.25;;;7.26;60.03
84032;BME280;74113;46.556;24.570;2024-02-23T05:31:13;97418.92;;;7.22;60.44
84032;BME280;74113;46.556;24.570;2024-02-23T05:33:42;97419.46;;;7.30;61.11
84032;BME280;74113;46.556;24.570;2024-02-23T05:36:13;97416.09;;;7.55;60.29
84032;BME280;74113;46.556;24.570;2024-02-23T05:38:48;97420.85;;;7.73;59.98
84032;BME280;74113;46.556;24.570;2024-02-23T05:41:17;97423.81;;;7.85;59.31
84032;BME280;74113;46.556;24.570;2024-02-23T05:43:48;97419.04;;;7.88;59.39
84032;BME280;74113;46.556;24.570;2024-02-23T05:46:18;97427.27;;;7.94;59.33
84032;BME280;74113;46.556;24.570;2024-02-23T05:48:54;97431.11;;;8.01;58.84
84032;BME280;74113;46.556;24.570;2024-02-23T05:51:46;97431.16;;;8.04;59.24
84032;BME280;74113;46.556;24.570;2024-02-23T05:54:16;97438.72;;;8.09;59.38
84032;BME280;74113;46.556;24.570;2024-02-23T05:56:45;97438.42;;;8.20;59.20
84032;BME280;74113;46.556;24.570;2024-02-23T05:59:18;97437.15;;;8.21;58.93
84032;BME280;74113;46.556;24.570;2024-02-23T06:01:48;97437.70;;;8.29;58.92
84032;BME280;74113;46.556;24.570;2024-02-23T06:04:18;97440.95;;;8.30;58.33
84032;BME280;74113;46.556;24.570;2024-02-23T06:06:48;97446.33;;;8.25;58.48
84032;BME280;74113;46.556;24.570;2024-02-23T06:09:18;97452.23;;;8.16;58.82
84032;BME280;74113;46.556;24.570;2024-02-23T06:11:48;97455.08;;;8.10;58.73
84032;BME280;74113;46.556;24.570;2024-02-23T06:14:18;97457.69;;;8.06;58.03
84032;BME280;74113;46.556;24.570;2024-02-23T06:16:49;97457.55;;;8.00;58.03
84032;BME280;74113;46.556;24.570;2024-02-23T06:19:21;97457.59;;;8.00;57.35
84032;BME280;74113;46.556;24.570;2024-02-23T06:21:54;97460.84;;;8.00;57.39
84032;BME280;74113;46.556;24.570;2024-02-23T06:24:25;97458.09;;;8.04;57.37
84032;BME280;74113;46.556;24.570;2024-02-23T06:26:57;97459.23;;;8.10;56.85
84032;BME280;74113;46.556;24.570;2024-02-23T06:29:29;97456.30;;;8.18;56.73
84032;BME280;74113;46.556;24.570;2024-02-23T06:32:02;97458.30;;;8.19;55.99
84032;BME280;74113;46.556;24.570;2024-02-23T06:34:32;97458.80;;;8.20;55.74
84032;BME280;74113;46.556;24.570;2024-02-23T06:37:02;97459.67;;;8.24;55.54
84032;BME280;74113;46.556;24.570;2024-02-23T06:39:33;97459.72;;;8.27;55.43
84032;BME280;74113;46.556;24.570;2024-02-23T06:42:04;97458.04;;;8.30;55.46
84032;BME280;74113;46.556;24.570;2024-02-23T06:44:34;97456.89;;;8.33;55.46
84032;BME280;74113;46.556;24.570;2024-02-23T06:47:04;97457.09;;;8.37;55.97
84032;BME280;74113;46.556;24.570;2024-02-23T06:49:34;97463.29;;;8.37;56.16
84032;BME280;74113;46.556;24.570;2024-02-23T06:52:05;97464.06;;;8.40;57.47
84032;BME280;74113;46.556;24.570;2024-02-23T06:54:35;97461.41;;;8.45;57.38
84032;BME280;74113;46.556;24.570;2024-02-23T06:57:04;97460.09;;;8.52;57.64
84032;BME280;74113;46.556;24.570;2024-02-23T06:59:33;97459.39;;;8.56;56.57
84032;BME280;74113;46.556;24.570;2024-02-23T07:02:04;97464.43;;;8.55;56.62
84032;BME280;74113;46.556;24.570;2024-02-23T07:04:33;97465.17;;;8.58;57.25
84032;BME280;74113;46.556;24.570;2024-02-23T07:07:05;97469.98;;;8.63;57.16
84032;BME280;74113;46.556;24.570;2024-02-23T07:09:38;97467.80;;;8.69;57.98
84032;BME280;74113;46.556;24.570;2024-02-23T07:12:08;97469.48;;;8.74;58.32
84032;BME280;74113;46.556;24.570;2024-02-23T07:14:41;97476.05;;;8.78;58.54
84032;BME280;74113;46.556;24.570;2024-02-23T07:17:11;97476.58;;;8.85;58.72
84032;BME280;74113;46.556;24.570;2024-02-23T07:19:41;97473.36;;;8.92;57.61
84032;BME280;74113;46.556;24.570;2024-02-23T07:22:12;97475.73;;;8.93;57.80
84032;BME280;74113;46.556;24.570;2024-02-23T07:24:42;97479.42;;;8.95;57.50
84032;BME280;74113;46.556;24.570;2024-02-23T07:27:11;97481.85;;;8.91;57.61
84032;BME280;74113;46.556;24.570;2024-02-23T07:29:40;97479.68;;;8.90;57.78
84032;BME280;74113;46.556;24.570;2024-02-23T07:32:09;97478.27;;;8.90;57.84
84032;BME280;74113;46.556;24.570;2024-02-23T07:34:39;97473.94;;;8.90;57.24
84032;BME280;74113;46.556;24.570;2024-02-23T07:37:08;97478.74;;;8.91;57.83
84032;BME280;74113;46.556;24.570;2024-02-23T07:39:39;97479.02;;;8.93;57.04
84032;BME280;74113;46.556;24.570;2024-02-23T07:42:09;97474.63;;;8.94;57.25
84032;BME280;74113;46.556;24.570;2024-02-23T07:44:40;97476.02;;;8.98;56.78
84032;BME280;74113;46.556;24.570;2024-02-23T07:47:09;97478.02;;;9.03;56.82
84032;BME280;74113;46.556;24.570;2024-02-23T07:49:39;97479.34;;;9.08;56.90
84032;BME280;74113;46.556;24.570;2024-02-23T07:52:09;97484.67;;;9.13;56.50
84032;BME280;74113;46.556;24.570;2024-02-23T07:54:39;97484.77;;;9.18;56.40
84032;BME280;74113;46.556;24.570;2024-02-23T07:57:08;97488.42;;;9.25;55.76
84032;BME280;74113;46.556;24.570;2024-02-23T07:59:37;97485.18;;;9.36;55.80
84032;BME280;74113;46.556;24.570;2024-02-23T08:02:06;97492.04;;;9.48;55.19
84032;BME280;74113;46.556;24.570;2024-02-23T08:04:36;97491.45;;;9.61;55.32
84032;BME280;74113;46.556;24.570;2024-02-23T08:07:08;97495.39;;;9.73;55.08
84032;BME280;74113;46.556;24.570;2024-02-23T08:09:38;97493.00;;;9.86;55.36
84032;BME280;74113;46.556;24.570;2024-02-23T08:12:11;97493.86;;;10.01;55.30
84032;BME280;74113;46.556;24.570;2024-02-23T08:14:53;97492.67;;;10.10;53.84
84032;BME280;74113;46.556;24.570;2024-02-23T08:17:33;97489.34;;;10.15;52.87
84032;BME280;74113;46.556;24.570;2024-02-23T08:20:04;97490.42;;;10.18;53.00
84032;BME280;74113;46.556;24.570;2024-02-23T08:22:34;97488.23;;;10.24;52.48
84032;BME280;74113;46.556;24.570;2024-02-23T08:25:04;97493.38;;;10.32;52.93
84032;BME280;74113;46.556;24.570;2024-02-23T08:27:33;97487.39;;;10.41;52.64
84032;BME280;74113;46.556;24.570;2024-02-23T08:30:02;97485.12;;;10.48;52.70
84032;BME280;74113;46.556;24.570;2024-02-23T08:32:32;97481.52;;;10.57;52.79
84032;BME280;74113;46.556;24.570;2024-02-23T08:35:03;97481.16;;;10.68;53.14
84032;BME280;74113;46.556;24.570;2024-02-23T08:37:32;97481.65;;;10.75;52.00
84032;BME280;74113;46.556;24.570;2024-02-23T08:40:03;97483.86;;;10.82;52.37
84032;BME280;74113;46.556;24.570;2024-02-23T08:42:39;97490.26;;;10.93;52.34
84032;BME280;74113;46.556;24.570;2024-02-23T08:45:09;97490.17;;;11.04;51.80
84032;BME280;74113;46.556;24.570;2024-02-23T08:47:42;97489.04;;;11.15;51.84
84032;BME280;74113;46.556;24.570;2024-02-23T08:50:11;97490.14;;;11.24;51.26
84032;BME280;74113;46.556;24.570;2024-02-23T08:52:41;97491.73;;;11.33;50.64
84032;BME280;74113;46.556;24.570;2024-02-23T08:55:10;97492.19;;;11.44;50.10
84032;BME280;74113;46.556;24.570;2024-02-23T08:57:40;97495.89;;;11.53;50.53
84032;BME280;74113;46.556;24.570;2024-02-23T09:00:12;97496.17;;;11.60;49.04
84032;BME280;74113;46.556;24.570;2024-02-23T09:02:45;97499.39;;;11.71;49.56
84032;BME280;74113;46.556;24.570;2024-02-23T09:05:15;97499.96;;;11.80;48.86
84032;BME280;74113;46.556;24.570;2024-02-23T09:07:44;97499.16;;;11.85;48.61
84032;BME280;74113;46.556;24.570;2024-02-23T09:10:21;97506.17;;;11.93;48.66
84032;BME280;74113;46.556;24.570;2024-02-23T09:12:50;97505.61;;;12.03;48.68
84032;BME280;74113;46.556;24.570;2024-02-23T09:15:22;97505.25;;;12.12;48.18
84032;BME280;74113;46.556;24.570;2024-02-23T09:17:55;97505.96;;;12.21;47.75
84032;BME280;74113;46.556;24.570;2024-02-23T09:20:25;97509.24;;;12.27;48.85
84032;BME280;74113;46.556;24.570;2024-02-23T09:23:00;97514.83;;;12.27;48.24
84032;BME280;74113;46.556;24.570;2024-02-23T09:25:32;97516.48;;;12.25;48.27
84032;BME280;74113;46.556;24.570;2024-02-23T09:28:03;97515.93;;;12.26;48.49
84032;BME280;74113;46.556;24.570;2024-02-23T09:30:32;97518.95;;;12.25;48.00
84032;BME280;74113;46.556;24.570;2024-02-23T09:33:02;97516.06;;;12.29;48.29
84032;BME280;74113;46.556;24.570;2024-02-23T09:35:33;97517.08;;;12.39;48.55
84032;BME280;74113;46.556;24.570;2024-02-23T09:38:05;97517.75;;;12.45;48.38
84032;BME280;74113;46.556;24.570;2024-02-23T09:40:36;97514.05;;;12.49;48.32
84032;BME280;74113;46.556;24.570;2024-02-23T09:43:08;97512.17;;;12.52;47.85
84032;BME280;74113;46.556;24.570;2024-02-23T09:45:39;97512.91;;;12.57;48.11
84032;BME280;74113;46.556;24.570;2024-02-23T09:48:10;97512.66;;;12.58;47.50
84032;BME280;74113;46.556;24.570;2024-02-23T09:50:45;97514.80;;;12.61;48.02
84032;BME280;74113;46.556;24.570;2024-02-23T09:53:17;97514.55;;;12.65;48.14
84032;BME280;74113;46.556;24.570;2024-02-23T09:55:50;97514.63;;;12.66;48.32
84032;BME280;74113;46.556;24.570;2024-02-23T09:58:22;97509.09;;;12.69;48.08
84032;BME280;74113;46.556;24.570;2024-02-23T10:00:53;97506.11;;;12.69;48.43
84032;BME280;74113;46.556;24.570;2024-02-23T10:03:31;97505.17;;;12.67;47.26
84032;BME280;74113;46.556;24.570;2024-02-23T10:06:20;97505.72;;;12.67;47.73
84032;BME280;74113;46.556;24.570;2024-02-23T10:09:01;97500.20;;;12.68;47.60
84032;BME280;74113;46.556;24.570;2024-02-23T10:11:35;97499.41;;;12.70;46.70
84032;BME280;74113;46.556;24.570;2024-02-23T10:14:06;97498.37;;;12.76;47.33
84032;BME280;74113;46.556;24.570;2024-02-23T10:16:36;97495.23;;;12.76;46.58
84032;BME280;74113;46.556;24.570;2024-02-23T10:19:36;97484.30;;;12.81;46.30
84032;BME280;74113;46.556;24.570;2024-02-23T10:22:10;97476.16;;;12.89;46.58
84032;BME280;74113;46.556;24.570;2024-02-23T10:24:43;97470.67;;;12.99;45.57
84032;BME280;74113;46.556;24.570;2024-02-23T10:27:12;97471.05;;;13.16;45.88
84032;BME280;74113;46.556;24.570;2024-02-23T10:29:42;97465.11;;;13.33;46.59
84032;BME280;74113;46.556;24.570;2024-02-23T10:32:15;97464.67;;;13.45;45.90
84032;BME280;74113;46.556;24.570;2024-02-23T10:34:49;97462.48;;;13.44;43.87
84032;BME280;74113;46.556;24.570;2024-02-23T10:37:22;97458.66;;;13.44;43.88
84032;BME280;74113;46.556;24.570;2024-02-23T10:39:57;97450.02;;;13.46;44.21
84032;BME280;74113;46.556;24.570;2024-02-23T10:42:33;97450.58;;;13.53;44.08
84032;BME280;74113;46.556;24.570;2024-02-23T10:45:05;97447.63;;;13.56;43.23
84032;BME280;74113;46.556;24.570;2024-02-23T10:47:35;97447.92;;;13.54;43.23
84032;BME280;74113;46.556;24.570;2024-02-23T10:50:07;97444.60;;;13.54;42.88
84032;BME280;74113;46.556;24.570;2024-02-23T10:52:38;97443.80;;;13.59;43.40
84032;BME280;74113;46.556;24.570;2024-02-23T10:55:11;97446.09;;;13.64;42.73
84032;BME280;74113;46.556;24.570;2024-02-23T10:57:41;97445.82;;;13.65;44.04
84032;BME280;74113;46.556;24.570;2024-02-23T11:00:11;97437.88;;;13.66;43.59
84032;BME280;74113;46.556;24.570;2024-02-23T11:02:49;97434.91;;;13.67;43.59
84032;BME280;74113;46.556;24.570;2024-02-23T11:05:19;97429.91;;;13.63;42.54
84032;BME280;74113;46.556;24.570;2024-02-23T11:07:49;97423.23;;;13.61;41.57
84032;BME280;74113;46.556;24.570;2024-02-23T11:10:19;97421.67;;;13.59;41.37
84032;BME280;74113;46.556;24.570;2024-02-23T11:13:07;97417.67;;;13.58;41.83
84032;BME280;74113;46.556;24.570;2024-02-23T11:15:41;97411.52;;;13.60;42.06
84032;BME280;74113;46.556;24.570;2024-02-23T11:18:27;97415.03;;;13.62;41.48
84032;BME280;74113;46.556;24.570;2024-02-23T11:20:59;97419.02;;;13.67;41.12
84032;BME280;74113;46.556;24.570;2024-02-23T11:23:44;97418.72;;;13.77;41.17
84032;BME280;74113;46.556;24.570;2024-02-23T11:26:15;97425.02;;;13.93;41.50
84032;BME280;74113;46.556;24.570;2024-02-23T11:28:51;97424.39;;;14.05;41.43
84032;BME280;74113;46.556;24.570;2024-02-23T11:31:24;97425.66;;;14.12;40.14
84032;BME280;74113;46.556;24.570;2024-02-23T11:33:56;97424.17;;;14.21;39.01
84032;BME280;74113;46.556;24.570;2024-02-23T11:36:29;97426.94;;;14.35;38.95
84032;BME280;74113;46.556;24.570;2024-02-23T11:39:00;97427.52;;;14.44;39.53
84032;BME280;74113;46.556;24.570;2024-02-23T11:41:30;97421.26;;;14.54;40.74
84032;BME280;74113;46.556;24.570;2024-02-23T11:44:00;97413.09;;;14.59;38.66
84032;BME280;74113;46.556;24.570;2024-02-23T11:46:31;97416.47;;;14.63;38.54
84032;BME280;74113;46.556;24.570;2024-02-23T11:49:00;97411.73;;;14.63;37.62
84032;BME280;74113;46.556;24.570;2024-02-23T11:51:29;97412.92;;;14.61;36.73
84032;BME280;74113;46.556;24.570;2024-02-23T11:54:00;97411.94;;;14.58;37.68
84032;BME280;74113;46.556;24.570;2024-02-23T11:56:29;97416.14;;;14.52;36.92
84032;BME280;74113;46.556;24.570;2024-02-23T11:58:58;97409.83;;;14.45;36.97
84032;BME280;74113;46.556;24.570;2024-02-23T12:01:30;97410.04;;;14.37;36.84
84032;BME280;74113;46.556;24.570;2024-02-23T12:04:05;97405.70;;;14.31;37.38
84032;BME280;74113;46.556;24.570;2024-02-23T12:06:37;97407.38;;;14.29;38.15
84032;BME280;74113;46.556;24.570;2024-02-23T12:09:07;97406.77;;;14.28;37.82
84032;BME280;74113;46.556;24.570;2024-02-23T12:11:36;97404.90;;;14.25;37.34
84032;BME280;74113;46.556;24.570;2024-02-23T12:14:08;97403.21;;;14.19;37.02
84032;BME280;74113;46.556;24.570;2024-02-23T12:16:39;97403.23;;;14.11;36.28
84032;BME280;74113;46.556;24.570;2024-02-23T12:19:09;97404.36;;;14.07;37.05
84032;BME280;74113;46.556;24.570;2024-02-23T12:21:39;97401.71;;;14.05;36.96
84032;BME280;74113;46.556;24.570;2024-02-23T12:24:12;97408.20;;;14.04;37.93
84032;BME280;74113;46.556;24.570;2024-02-23T12:26:41;97407.27;;;14.02;37.11
84032;BME280;74113;46.556;24.570;2024-02-23T12:29:10;97404.42;;;14.01;37.22
84032;BME280;74113;46.556;24.570;2024-02-23T12:31:38;97401.27;;;14.03;37.96
84032;BME280;74113;46.556;24.570;2024-02-23T12:34:11;97399.64;;;14.07;38.18
84032;BME280;74113;46.556;24.570;2024-02-23T12:36:42;97397.53;;;14.13;37.79
84032;BME280;74113;46.556;24.570;2024-02-23T12:39:11;97399.71;;;14.14;37.47
84032;BME280;74113;46.556;24.570;2024-02-23T12:41:40;97400.75;;;14.17;37.58
84032;BME280;74113;46.556;24.570;2024-02-23T12:44:10;97396.14;;;14.20;37.86
84032;BME280;74113;46.556;24.570;2024-02-23T12:46:42;97396.05;;;14.24;37.55
84032;BME280;74113;46.556;24.570;2024-02-23T12:49:11;97402.27;;;14.27;38.28
84032;BME280;74113;46.556;24.570;2024-02-23T12:51:40;97400.45;;;14.28;38.01
84032;BME280;74113;46.556;24.570;2024-02-23T12:54:09;97402.63;;;14.30;36.59
84032;BME280;74113;46.556;24.570;2024-02-23T12:56:39;97400.86;;;14.30;36.91
84032;BME280;74113;46.556;24.570;2024-02-23T12:59:08;97402.30;;;14.32;37.34
84032;BME280;74113;46.556;24.570;2024-02-23T13:01:40;97398.33;;;14.35;37.10
84032;BME280;74113;46.556;24.570;2024-02-23T13:04:13;97397.52;;;14.38;36.61
84032;BME280;74113;46.556;24.570;2024-02-23T13:06:42;97394.19;;;14.44;36.44
84032;BME280;74113;46.556;24.570;2024-02-23T13:09:11;97391.16;;;14.47;36.53
84032;BME280;74113;46.556;24.570;2024-02-23T13:11:41;97391.35;;;14.49;36.36
84032;BME280;74113;46.556;24.570;2024-02-23T13:14:10;97387.73;;;14.46;35.81